Time;durP1;ratioP1;P1;durP2;ratioP2;P2;SDS_P1;SDS_P2;PMS_P1;PMS_P2;Temp;Humidity;BMP_temperature;BMP_pressure;BME280_temperature;BME280_humidity;BME280_pressure;Samples;Min_cycle;Max_cycle;Signal;HPM_P1;HPM_P2
2022/07/18 00:01:45;;;;;;;24.88;23.20;;;26.20;41.70;;;;;;5016543;28;20033;-81
2022/07/18 00:04:11;;;;;;;24.98;23.55;;;26.20;42.40;;;;;;5033047;28;20552;-82
2022/07/18 00:06:37;;;;;;;23.88;22.65;;;26.20;41.70;;;;;;5031531;28;20048;-82
2022/07/18 00:09:03;;;;;;;24.27;22.77;;;26.20;41.70;;;;;;5019428;28;20451;-82
2022/07/18 00:11:30;;;;;;;23.92;22.65;;;26.20;42.00;;;;;;5002519;28;20527;-82
2022/07/18 00:13:56;;;;;;;25.85;24.35;;;26.20;42.00;;;;;;5036897;28;20495;-82
2022/07/18 00:16:25;;;;;;;26.23;24.63;;;26.20;41.90;;;;;;5032582;28;20036;-82
2022/07/18 00:18:51;;;;;;;25.08;23.77;;;26.30;41.80;;;;;;5016421;28;20033;-82
2022/07/18 00:21:17;;;;;;;23.98;22.73;;;26.20;41.80;;;;;;5033661;28;20400;-82
2022/07/18 00:23:43;;;;;;;25.73;24.23;;;26.00;42.20;;;;;;5036038;28;20373;-82
2022/07/18 00:26:09;;;;;;;23.65;22.45;;;26.00;42.20;;;;;;5016347;28;20053;-82
2022/07/18 00:28:35;;;;;;;23.58;22.38;;;26.00;42.20;;;;;;5032836;28;20049;-82
2022/07/18 00:31:02;;;;;;;24.50;23.15;;;26.10;42.30;;;;;;5000210;28;20044;-82
2022/07/18 00:33:28;;;;;;;23.38;22.08;;;25.90;42.30;;;;;;5032525;28;20033;-82
2022/07/18 00:35:54;;;;;;;23.42;21.92;;;25.70;42.70;;;;;;5046431;28;20044;-82
2022/07/18 00:38:20;;;;;;;22.30;21.02;;;25.80;42.60;;;;;;5036983;28;20045;-82
2022/07/18 00:40:46;;;;;;;21.92;20.33;;;25.70;42.60;;;;;;5032529;28;20507;-81
2022/07/18 00:43:13;;;;;;;22.25;21.05;;;25.70;42.70;;;;;;5036151;28;20043;-82
2022/07/18 00:45:43;;;;;;;24.30;22.90;;;25.60;42.60;;;;;;4997574;28;20033;-82
2022/07/18 00:48:10;;;;;;;22.50;21.10;;;25.40;42.70;;;;;;5044922;28;20044;-81
2022/07/18 00:50:36;;;;;;;22.13;20.70;;;25.40;42.70;;;;;;5035300;28;20064;-82
2022/07/18 00:53:02;;;;;;;22.52;21.30;;;25.40;42.70;;;;;;5035857;28;20045;-82
2022/07/18 00:55:28;;;;;;;21.17;20.02;;;25.30;43.20;;;;;;5032440;28;20021;-81
2022/07/18 00:57:54;;;;;;;21.90;20.40;;;25.20;43.10;;;;;;5013284;28;20404;-81
2022/07/18 01:03:05;;;;;;;21.48;20.27;;;25.20;43.40;;;;;;5042284;28;20048;-82
2022/07/18 01:05:31;;;;;;;22.50;21.10;;;25.10;43.60;;;;;;5035980;28;20033;-81
2022/07/18 01:07:57;;;;;;;22.05;20.75;;;25.20;43.40;;;;;;5034191;28;20492;-81
2022/07/18 01:10:23;;;;;;;22.23;21.05;;;25.20;43.40;;;;;;5015578;28;20047;-82
2022/07/18 01:12:49;;;;;;;21.83;20.73;;;25.10;43.50;;;;;;5030717;28;20396;-82
2022/07/18 01:15:15;;;;;;;22.08;20.90;;;25.00;43.70;;;;;;5033251;28;20030;-82
2022/07/18 01:17:41;;;;;;;21.00;19.48;;;24.90;43.80;;;;;;5036551;28;20033;-82
2022/07/18 01:20:08;;;;;;;20.02;18.98;;;24.80;44.10;;;;;;5034013;28;20048;-82
2022/07/18 01:22:34;;;;;;;21.83;20.65;;;24.80;43.80;;;;;;5031318;28;20031;-82
2022/07/18 01:25:00;;;;;;;20.67;19.58;;;24.90;43.90;;;;;;5034004;28;20549;-82
2022/07/18 01:27:26;;;;;;;20.75;19.55;;;24.90;43.90;;;;;;5031327;28;20483;-82
2022/07/18 01:29:53;;;;;;;20.45;19.35;;;24.90;43.90;;;;;;5001957;28;20041;-82
2022/07/18 01:32:19;;;;;;;21.02;19.92;;;24.80;43.90;;;;;;5031177;28;20060;-82
2022/07/18 01:34:46;;;;;;;20.83;19.50;;;24.80;43.90;;;;;;5032255;28;20678;-82
2022/07/18 01:37:12;;;;;;;20.63;19.52;;;24.80;44.10;;;;;;5045222;28;20033;-82
2022/07/18 01:39:39;;;;;;;20.90;19.60;;;24.80;44.00;;;;;;5029887;28;20017;-82
2022/07/18 01:42:06;;;;;;;20.50;19.20;;;24.70;44.10;;;;;;5034997;28;20396;-82
2022/07/18 01:44:32;;;;;;;20.30;19.20;;;24.70;44.20;;;;;;5031366;28;20025;-82
2022/07/18 01:46:59;;;;;;;20.48;19.35;;;24.70;44.20;;;;;;5014446;28;20034;-82
2022/07/18 01:49:25;;;;;;;20.52;19.35;;;24.60;44.20;;;;;;5035304;28;20107;-81
2022/07/18 01:51:52;;;;;;;20.27;19.13;;;24.50;44.40;;;;;;5011857;28;20558;-82
2022/07/18 01:54:25;;;;;;;19.40;18.33;;;24.50;44.40;;;;;;5032312;28;20025;-82
2022/07/18 01:56:51;;;;;;;20.23;19.13;;;24.50;44.40;;;;;;5015928;28;20125;-82
2022/07/18 01:59:17;;;;;;;20.33;19.13;;;24.40;44.50;;;;;;5023347;28;20499;-82
2022/07/18 02:01:44;;;;;;;20.15;18.95;;;24.40;44.50;;;;;;5041607;28;20038;-81
2022/07/18 02:04:10;;;;;;;21.20;20.10;;;24.40;44.40;;;;;;5013876;28;20036;-82
2022/07/18 02:06:36;;;;;;;20.88;19.77;;;24.40;44.30;;;;;;5030898;28;20025;-81
2022/07/18 02:09:03;;;;;;;19.70;18.70;;;24.50;44.10;;;;;;5034521;28;20048;-82
2022/07/18 02:11:29;;;;;;;20.38;18.95;;;24.50;44.20;;;;;;5030929;28;20029;-82
2022/07/18 02:13:55;;;;;;;20.73;19.42;;;24.50;44.20;;;;;;5034686;28;20488;-82
2022/07/18 02:16:21;;;;;;;20.55;19.25;;;24.60;44.20;;;;;;5034260;28;20036;-82
2022/07/18 02:18:47;;;;;;;21.45;20.25;;;24.40;44.50;;;;;;5029423;28;20048;-81
2022/07/18 02:21:13;;;;;;;21.15;19.92;;;24.40;44.60;;;;;;5016713;28;20022;-81
2022/07/18 02:23:40;;;;;;;21.05;19.80;;;24.40;44.60;;;;;;5034852;28;20036;-81
2022/07/18 02:26:07;;;;;;;21.73;20.42;;;24.30;44.90;;;;;;5014162;28;20044;-82
2022/07/18 02:28:33;;;;;;;21.30;19.98;;;24.30;44.90;;;;;;5014388;28;20040;-82
2022/07/18 02:30:59;;;;;;;22.33;20.88;;;24.40;44.70;;;;;;5012187;28;20056;-82
2022/07/18 02:33:25;;;;;;;21.33;20.02;;;24.30;44.90;;;;;;5030399;28;20041;-81
2022/07/18 02:35:51;;;;;;;21.67;20.38;;;24.30;44.90;;;;;;5041926;28;20036;-82
2022/07/18 02:38:18;;;;;;;22.42;21.20;;;24.20;45.30;;;;;;5019236;28;20033;-82
2022/07/18 02:40:44;;;;;;;22.67;21.17;;;24.10;45.40;;;;;;5030513;28;20032;-81
2022/07/18 02:43:10;;;;;;;22.75;21.45;;;24.20;45.50;;;;;;5013829;28;20368;-81
2022/07/18 02:45:36;;;;;;;22.70;21.30;;;24.00;45.40;;;;;;5028640;28;20044;-81
2022/07/18 02:48:02;;;;;;;21.63;20.52;;;24.00;45.70;;;;;;5014039;28;20045;-81
2022/07/18 02:50:28;;;;;;;21.65;20.35;;;24.00;45.60;;;;;;5042524;28;20025;-81
2022/07/18 02:52:56;;;;;;;19.90;18.55;;;23.90;45.90;;;;;;5039855;28;20403;-81
2022/07/18 02:58:16;;;;;;;21.17;19.98;;;23.80;46.30;;;;;;4963366;23;20094;-81
2022/07/18 03:00:42;;;;;;;20.42;19.23;;;23.90;45.90;;;;;;4944734;28;20043;-81
2022/07/18 03:03:08;;;;;;;20.88;19.77;;;23.80;46.10;;;;;;4950838;28;20027;-81
2022/07/18 03:05:34;;;;;;;20.75;19.50;;;23.80;46.00;;;;;;4951566;29;20393;-81
2022/07/18 03:08:00;;;;;;;22.30;20.90;;;23.80;46.00;;;;;;4953323;28;20035;-81
2022/07/18 03:10:26;;;;;;;23.17;21.95;;;23.80;46.00;;;;;;4955471;28;20023;-81
2022/07/18 03:12:52;;;;;;;21.85;20.65;;;23.80;46.00;;;;;;4956248;29;20046;-81
2022/07/18 03:15:18;;;;;;;21.42;20.23;;;23.80;46.00;;;;;;4954037;28;20019;-81
2022/07/18 03:17:44;;;;;;;21.17;20.08;;;23.70;46.00;;;;;;4955416;29;20023;-81
2022/07/18 03:20:11;;;;;;;21.23;20.02;;;23.70;46.10;;;;;;4956501;29;20035;-81
2022/07/18 03:22:37;;;;;;;20.38;19.13;;;23.70;46.20;;;;;;4956543;29;20031;-81
2022/07/18 03:25:04;;;;;;;21.25;19.95;;;23.70;46.20;;;;;;4955324;29;20034;-81
2022/07/18 03:27:30;;;;;;;21.02;19.92;;;23.70;46.10;;;;;;4939413;29;20043;-81
2022/07/18 03:29:56;;;;;;;21.52;19.85;;;23.70;46.40;;;;;;4956413;29;20035;-82
2022/07/18 03:32:22;;;;;;;21.88;20.73;;;23.70;46.30;;;;;;4955142;28;20055;-81
2022/07/18 03:34:48;;;;;;;21.52;20.33;;;23.50;46.80;;;;;;4956312;29;20413;-81
2022/07/18 03:37:14;;;;;;;21.25;20.05;;;23.40;47.00;;;;;;4956356;29;20038;-82
2022/07/18 03:39:40;;;;;;;20.85;19.75;;;23.30;47.00;;;;;;4956269;28;20412;-81
2022/07/18 03:42:06;;;;;;;21.48;20.08;;;23.40;47.00;;;;;;4955772;29;20031;-81
2022/07/18 03:44:32;;;;;;;20.70;19.48;;;23.40;46.90;;;;;;4938753;29;20070;-81
2022/07/18 03:46:58;;;;;;;21.58;20.35;;;23.30;47.20;;;;;;4955651;28;20489;-81
2022/07/18 03:49:24;;;;;;;19.25;18.05;;;23.10;47.30;;;;;;4956067;29;20038;-81
2022/07/18 03:51:51;;;;;;;19.33;18.33;;;23.00;47.70;;;;;;4956054;29;20378;-81
2022/07/18 03:54:17;;;;;;;19.77;18.58;;;23.10;47.70;;;;;;4956123;29;20036;-81
2022/07/18 03:56:43;;;;;;;19.67;18.45;;;23.10;47.80;;;;;;4955546;29;20035;-81
2022/07/18 03:59:09;;;;;;;19.25;18.25;;;23.00;47.90;;;;;;4964433;28;20058;-81
2022/07/18 04:01:35;;;;;;;19.88;18.67;;;23.00;47.90;;;;;;4955914;28;20039;-81
2022/07/18 04:04:01;;;;;;;19.13;17.92;;;23.00;48.10;;;;;;4953797;29;20473;-81
2022/07/18 04:06:27;;;;;;;18.83;17.70;;;23.00;48.00;;;;;;4951027;29;20027;-81
2022/07/18 04:08:53;;;;;;;19.05;17.98;;;23.10;48.60;;;;;;4935520;29;20028;-81
2022/07/18 04:11:23;;;;;;;19.38;18.38;;;23.10;48.10;;;;;;4936569;29;20023;-81
2022/07/18 04:13:53;;;;;;;18.95;17.65;;;23.00;48.10;;;;;;4935272;29;20060;-82
2022/07/18 04:16:19;;;;;;;18.98;17.67;;;23.00;48.40;;;;;;4936130;28;20036;-81
2022/07/18 04:18:45;;;;;;;18.63;17.63;;;23.00;48.40;;;;;;4936296;29;20047;-81
2022/07/18 04:21:11;;;;;;;18.73;17.40;;;23.00;48.70;;;;;;4934871;29;20043;-81
2022/07/18 04:23:37;;;;;;;18.17;17.17;;;22.80;49.00;;;;;;4936346;29;20043;-81
2022/07/18 04:26:04;;;;;;;17.83;16.77;;;22.80;49.10;;;;;;4936045;29;20031;-81
2022/07/18 04:28:30;;;;;;;18.13;17.08;;;22.80;49.20;;;;;;4919333;29;20051;-81
2022/07/18 04:30:56;;;;;;;18.52;17.33;;;22.80;49.10;;;;;;4934425;28;20394;-81
2022/07/18 04:33:22;;;;;;;18.80;17.60;;;22.70;48.80;;;;;;4944326;29;20394;-81
2022/07/18 04:35:49;;;;;;;18.70;17.42;;;22.70;48.40;;;;;;4936184;29;20039;-81
2022/07/18 04:38:15;;;;;;;18.50;17.40;;;22.60;48.80;;;;;;4934898;29;20031;-81
2022/07/18 04:40:41;;;;;;;18.10;16.80;;;22.80;48.80;;;;;;4935775;29;20039;-81
2022/07/18 04:43:07;;;;;;;17.80;16.80;;;22.60;49.20;;;;;;4934707;29;20390;-81
2022/07/18 04:45:34;;;;;;;18.88;17.45;;;22.60;49.50;;;;;;4935438;28;20047;-81
2022/07/18 04:48:00;;;;;;;18.55;17.45;;;22.60;49.60;;;;;;4934751;29;20035;-81
2022/07/18 04:50:29;;;;;;;19.02;18.02;;;22.60;49.60;;;;;;4934845;29;20032;-81
2022/07/18 04:52:55;;;;;;;19.30;17.85;;;22.70;49.60;;;;;;4936073;29;20413;-81
2022/07/18 04:55:22;;;;;;;18.63;17.52;;;22.60;49.80;;;;;;4934264;29;20394;-81
2022/07/18 04:57:48;;;;;;;18.00;16.83;;;22.50;49.90;;;;;;4934460;29;20031;-81
2022/07/18 05:00:16;;;;;;;19.23;17.83;;;22.50;49.90;;;;;;4948320;28;20034;-81
2022/07/18 05:02:43;;;;;;;21.33;20.13;;;22.40;49.90;;;;;;4937408;29;20042;-81
2022/07/18 05:05:10;;;;;;;17.60;16.60;;;22.40;49.60;;;;;;4953572;29;20027;-81
2022/07/18 05:07:40;;;;;;;17.88;16.52;;;22.40;49.70;;;;;;4942090;28;20048;-81
2022/07/18 05:10:07;;;;;;;18.95;17.58;;;22.40;49.80;;;;;;4918171;29;20117;-81
2022/07/18 05:12:35;;;;;;;18.23;17.13;;;22.40;49.60;;;;;;4934003;29;20405;-81
2022/07/18 05:15:01;;;;;;;18.50;17.27;;;22.40;49.70;;;;;;4933899;29;20044;-81
2022/07/18 05:17:28;;;;;;;19.20;17.80;;;22.40;49.80;;;;;;4934658;28;20039;-81
2022/07/18 05:19:54;;;;;;;18.38;17.25;;;22.40;49.70;;;;;;4935234;29;20035;-81
2022/07/18 05:22:20;;;;;;;18.25;17.15;;;22.50;49.50;;;;;;4935233;29;20024;-82
2022/07/18 05:24:46;;;;;;;19.27;18.08;;;22.50;49.40;;;;;;4933644;29;20047;-81
2022/07/18 05:27:12;;;;;;;19.67;18.27;;;22.60;49.40;;;;;;4934890;29;20106;-81
2022/07/18 05:29:38;;;;;;;19.08;17.88;;;22.60;49.40;;;;;;4934482;29;20032;-81
2022/07/18 05:32:05;;;;;;;20.38;19.08;;;22.70;49.30;;;;;;4933130;28;20409;-81
2022/07/18 05:34:31;;;;;;;21.02;19.83;;;22.80;49.20;;;;;;4935097;29;20478;-81
2022/07/18 05:36:57;;;;;;;20.35;18.85;;;22.90;49.00;;;;;;4933830;29;20033;-81
2022/07/18 05:39:23;;;;;;;25.77;20.00;;;23.00;48.70;;;;;;4934680;29;20035;-81
2022/07/18 05:41:49;;;;;;;22.90;21.15;;;23.10;48.20;;;;;;4934907;29;20036;-82
2022/07/18 05:44:15;;;;;;;21.38;19.40;;;23.20;48.20;;;;;;4934993;29;20470;-81
2022/07/18 05:46:41;;;;;;;22.98;19.58;;;23.30;48.20;;;;;;4933093;28;20048;-81
2022/07/18 05:49:07;;;;;;;23.00;20.92;;;23.30;48.30;;;;;;4935039;29;20035;-82
2022/07/18 05:51:33;;;;;;;23.83;21.67;;;23.40;48.00;;;;;;4934572;29;20039;-82
2022/07/18 05:54:00;;;;;;;23.23;21.15;;;23.60;47.70;;;;;;4933096;29;20031;-82
2022/07/18 05:56:26;;;;;;;23.48;21.70;;;23.60;47.80;;;;;;4933430;29;20059;-82
2022/07/18 05:58:52;;;;;;;25.30;22.52;;;23.70;47.50;;;;;;4932733;29;20059;-82
2022/07/18 06:01:19;;;;;;;23.52;21.08;;;23.80;47.40;;;;;;4956432;28;20065;-82
2022/07/18 06:03:49;;;;;;;23.42;21.58;;;23.80;47.20;;;;;;4953531;28;20039;-82
2022/07/18 06:06:15;;;;;;;22.42;20.67;;;23.80;46.90;;;;;;4936212;29;20036;-82
2022/07/18 06:08:41;;;;;;;24.67;22.63;;;24.00;46.90;;;;;;4953316;29;20038;-82
2022/07/18 06:11:08;;;;;;;22.73;20.95;;;24.10;46.30;;;;;;4952505;29;20031;-82
2022/07/18 06:13:36;;;;;;;24.27;22.60;;;24.10;46.20;;;;;;4953709;29;20062;-82
2022/07/18 06:16:02;;;;;;;23.60;21.85;;;24.20;46.40;;;;;;4953137;28;20031;-82
2022/07/18 06:18:29;;;;;;;22.85;21.55;;;24.20;46.30;;;;;;4952485;29;20027;-82
2022/07/18 06:20:55;;;;;;;21.48;20.25;;;24.30;46.20;;;;;;4953054;29;20058;-82
2022/07/18 06:23:21;;;;;;;22.00;20.48;;;24.20;46.10;;;;;;4952291;29;20626;-82
2022/07/18 06:25:47;;;;;;;22.38;21.10;;;24.30;45.90;;;;;;4953388;29;20027;-82
2022/07/18 06:28:13;;;;;;;25.77;24.05;;;24.40;45.50;;;;;;4952015;29;20030;-82
2022/07/18 06:30:39;;;;;;;22.65;21.35;;;24.50;45.10;;;;;;4950923;28;20023;-82
2022/07/18 06:33:07;;;;;;;23.30;21.80;;;24.60;45.20;;;;;;4953002;29;20374;-82
2022/07/18 06:35:34;;;;;;;27.45;25.83;;;24.70;45.10;;;;;;4953359;28;20047;-82
2022/07/18 06:38:00;;;;;;;24.08;22.45;;;24.90;44.60;;;;;;4936383;29;20046;-82
2022/07/18 06:40:26;;;;;;;24.50;23.10;;;25.00;44.60;;;;;;4953038;28;20031;-82
2022/07/18 06:42:52;;;;;;;25.00;23.42;;;25.00;44.60;;;;;;4951897;29;20398;-81
2022/07/18 06:45:18;;;;;;;27.08;25.00;;;25.20;44.40;;;;;;4952703;28;20405;-82
2022/07/18 06:47:45;;;;;;;32.22;29.25;;;25.40;44.40;;;;;;4952993;28;20047;-82
2022/07/18 06:50:11;;;;;;;29.25;27.27;;;25.40;44.10;;;;;;4951804;29;20035;-82
2022/07/18 06:52:39;;;;;;;30.40;28.42;;;25.60;43.90;;;;;;4952944;29;20031;-82
2022/07/18 06:55:06;;;;;;;31.42;29.23;;;25.60;43.90;;;;;;4953150;29;20359;-82
2022/07/18 06:57:32;;;;;;;32.35;30.10;;;25.70;43.90;;;;;;4952944;29;20031;-82
2022/07/18 06:59:58;;;;;;;31.23;29.30;;;25.70;43.70;;;;;;4952735;29;20058;-82
2022/07/18 07:02:25;;;;;;;36.92;34.65;;;25.80;43.70;;;;;;4967340;28;20424;-82
2022/07/18 07:04:51;;;;;;;33.47;31.65;;;26.00;43.70;;;;;;4952537;29;20046;-82
2022/07/18 07:07:17;;;;;;;32.58;30.85;;;26.00;43.10;;;;;;4963676;28;20512;-82
2022/07/18 07:09:43;;;;;;;34.58;32.22;;;26.10;43.10;;;;;;4952963;29;20039;-82
2022/07/18 07:12:09;;;;;;;39.20;36.90;;;26.10;43.40;;;;;;4951510;29;20058;-82
2022/07/18 07:14:36;;;;;;;34.10;31.92;;;26.40;43.00;;;;;;4953045;28;20052;-82
2022/07/18 07:17:03;;;;;;;35.83;33.13;;;26.50;42.60;;;;;;4952437;28;20042;-83
2022/07/18 07:19:29;;;;;;;34.13;32.03;;;26.70;42.70;;;;;;4952270;29;20039;-82
2022/07/18 07:21:55;;;;;;;33.55;31.25;;;26.80;42.70;;;;;;4951531;29;20046;-82
2022/07/18 07:24:21;;;;;;;35.53;32.90;;;26.90;42.10;;;;;;4952864;29;20038;-83
2022/07/18 07:26:48;;;;;;;34.08;31.70;;;27.00;42.30;;;;;;4952586;29;20027;-82
2022/07/18 07:29:14;;;;;;;31.52;29.38;;;27.10;42.40;;;;;;4951723;28;20225;-82
2022/07/18 07:31:42;;;;;;;33.30;31.20;;;27.40;41.60;;;;;;4952218;28;20508;-82
2022/07/18 07:34:09;;;;;;;33.25;30.88;;;27.40;41.80;;;;;;4952053;29;20050;-83
2022/07/18 07:36:35;;;;;;;35.67;33.25;;;27.60;41.70;;;;;;4952796;29;20034;-83
2022/07/18 07:39:01;;;;;;;34.85;32.15;;;27.70;41.30;;;;;;4951444;28;20027;-83
2022/07/18 07:41:27;;;;;;;33.13;31.42;;;27.80;41.40;;;;;;4952508;29;20393;-83
2022/07/18 07:43:54;;;;;;;39.78;37.67;;;28.00;41.40;;;;;;4951410;29;20389;-83
2022/07/18 07:46:20;;;;;;;44.85;42.15;;;28.20;41.00;;;;;;4952509;28;20040;-83
2022/07/18 07:48:47;;;;;;;53.45;50.80;;;28.50;40.90;;;;;;4950778;29;20038;-83
2022/07/18 07:51:14;;;;;;;58.42;55.42;;;28.60;40.80;;;;;;4952523;29;20031;-83
2022/07/18 07:53:40;;;;;;;57.53;54.28;;;29.00;40.00;;;;;;4953118;28;20045;-83
2022/07/18 07:56:06;;;;;;;55.33;52.20;;;29.00;39.60;;;;;;4954716;29;20027;-82
2022/07/18 07:58:32;;;;;;;58.75;55.75;;;29.20;39.50;;;;;;4955807;29;20607;-83
2022/07/18 08:00:58;;;;;;;52.20;49.20;;;29.10;39.30;;;;;;4959022;28;20142;-83
2022/07/18 08:03:25;;;;;;;83.95;79.55;;;29.10;39.30;;;;;;4955348;28;20039;-83
2022/07/18 08:05:51;;;;;;;54.60;51.70;;;29.30;39.30;;;;;;4967863;28;20042;-83
2022/07/18 08:08:17;;;;;;;51.95;49.15;;;29.30;39.10;;;;;;4954468;29;20380;-83
2022/07/18 08:10:44;;;;;;;51.30;48.60;;;29.50;39.10;;;;;;4955645;29;20031;-83
2022/07/18 08:13:10;;;;;;;57.95;54.65;;;29.80;38.40;;;;;;4954328;29;20054;-82
2022/07/18 08:15:37;;;;;;;64.07;60.67;;;29.90;37.20;;;;;;4954160;28;20050;-83
2022/07/18 08:18:03;;;;;;;54.80;51.90;;;30.00;36.40;;;;;;4954048;29;20467;-83
2022/07/18 08:20:30;;;;;;;56.70;53.80;;;30.00;36.20;;;;;;4954219;28;20031;-83
2022/07/18 08:23:02;;;;;;;63.63;60.35;;;30.10;36.30;;;;;;4954180;29;20031;-83
2022/07/18 08:25:29;;;;;;;58.53;55.22;;;30.10;35.90;;;;;;4955429;29;20034;-83
2022/07/18 08:27:56;;;;;;;63.58;60.30;;;30.30;36.60;;;;;;4955360;29;20027;-83
2022/07/18 08:30:22;;;;;;;61.90;58.17;;;30.50;36.50;;;;;;4953997;28;20038;-84
2022/07/18 08:32:48;;;;;;;62.33;58.88;;;30.60;36.40;;;;;;4954961;29;20374;-84
2022/07/18 08:35:14;;;;;;;61.90;58.47;;;30.80;35.80;;;;;;4954031;29;20421;-83
2022/07/18 08:37:40;;;;;;;58.10;54.72;;;30.80;36.20;;;;;;4955230;29;20031;-84
2022/07/18 08:40:07;;;;;;;57.65;54.58;;;31.00;35.60;;;;;;4953739;29;20046;-83
2022/07/18 08:42:33;;;;;;;51.95;48.85;;;31.10;35.30;;;;;;4954002;28;20478;-84
2022/07/18 08:45:00;;;;;;;57.17;53.97;;;31.10;34.70;;;;;;4954173;29;20384;-84
2022/07/18 08:47:28;;;;;;;77.30;73.32;;;31.30;34.90;;;;;;4937598;28;20043;-84
2022/07/18 08:49:54;;;;;;;57.67;54.78;;;31.40;34.60;;;;;;4954954;28;20523;-83
2022/07/18 08:52:20;;;;;;;62.90;59.75;;;31.50;34.30;;;;;;4954042;28;20039;-84
2022/07/18 08:54:48;;;;;;;1999.90;999.90;;;31.50;34.30;;;;;;4953756;28;20371;-84
2022/07/18 08:57:15;;;;;;;1999.90;999.90;;;31.70;34.30;;;;;;4954969;29;20042;-83
2022/07/18 08:59:41;;;;;;;1999.90;999.90;;;31.90;33.90;;;;;;4959459;28;20058;-84
2022/07/18 09:02:07;;;;;;;1999.90;999.90;;;31.90;33.20;;;;;;4936505;29;20149;-84
2022/07/18 09:04:41;;;;;;;1999.90;999.90;;;31.90;33.80;;;;;;4953695;28;20489;-84
2022/07/18 09:07:08;;;;;;;1999.90;999.90;;;32.00;33.60;;;;;;4937968;29;20050;-84
2022/07/18 09:09:35;;;;;;;1999.90;999.90;;;32.00;32.60;;;;;;4953323;29;20038;-84
2022/07/18 09:12:03;;;;;;;1999.90;999.90;;;32.10;32.60;;;;;;4954635;29;20031;-84
2022/07/18 09:14:39;;;;;;;1999.90;999.90;;;32.10;32.60;;;;;;4954659;29;20042;-84
2022/07/18 09:17:31;;;;;;;1999.90;999.90;;;32.40;33.30;;;;;;4953616;28;20035;-84
2022/07/18 09:20:10;;;;;;;1999.90;999.90;;;32.50;31.80;;;;;;4954415;29;20082;-84
2022/07/18 09:22:37;;;;;;;1999.90;999.90;;;32.50;31.10;;;;;;4954144;28;20557;-84
2022/07/18 09:25:14;;;;;;;1999.90;999.90;;;32.50;31.30;;;;;;4952804;29;20410;-84
2022/07/18 09:27:51;;;;;;;1999.90;999.90;;;32.70;30.80;;;;;;4954219;29;20019;-84
2022/07/18 09:30:28;;;;;;;1999.90;999.90;;;32.90;30.40;;;;;;4953387;28;20042;-84
2022/07/18 09:33:03;;;;;;;1999.90;999.90;;;33.10;30.10;;;;;;4952940;28;20478;-84
2022/07/18 09:35:30;;;;;;;1999.90;999.90;;;33.10;30.00;;;;;;4954347;29;20066;-84
2022/07/18 09:38:01;;;;;;;1999.90;999.90;;;33.30;30.10;;;;;;4952831;29;20089;-84
2022/07/18 09:40:28;;;;;;;1999.90;999.90;;;33.50;29.20;;;;;;4953397;28;20027;-84
2022/07/18 09:42:57;;;;;;;1999.90;999.90;;;33.50;29.20;;;;;;4953789;28;20043;-84
2022/07/18 09:45:27;;;;;;;1999.90;999.90;;;33.60;29.20;;;;;;4952243;28;20042;-84
2022/07/18 09:47:55;;;;;;;1999.90;999.90;;;33.70;28.80;;;;;;4953445;28;20023;-84
2022/07/18 09:50:36;;;;;;;1999.90;999.90;;;33.80;29.00;;;;;;4953999;29;20035;-84
2022/07/18 09:53:12;;;;;;;1999.90;999.90;;;33.90;28.80;;;;;;4953753;29;20622;-84
2022/07/18 09:55:48;;;;;;;1999.90;999.90;;;34.10;28.50;;;;;;4954408;28;20039;-85
2022/07/18 09:58:26;;;;;;;1999.90;999.90;;;34.20;28.60;;;;;;4952706;28;20048;-84
2022/07/18 10:00:52;;;;;;;1999.90;999.90;;;34.20;28.50;;;;;;4957017;28;20532;-84
2022/07/18 10:03:19;;;;;;;1999.90;999.90;;;34.20;28.10;;;;;;4937042;29;20047;-84
2022/07/18 10:05:47;;;;;;;1999.90;999.90;;;34.20;28.00;;;;;;4951209;29;20041;-84
2022/07/18 10:08:15;;;;;;;1999.90;999.90;;;34.20;28.00;;;;;;4980723;28;20031;-85
2022/07/18 10:10:42;;;;;;;1999.90;999.90;;;34.40;28.20;;;;;;4953605;29;20026;-85
2022/07/18 10:13:08;;;;;;;1999.90;999.90;;;34.60;27.70;;;;;;4951989;29;20031;-85
2022/07/18 10:15:36;;;;;;;1999.90;999.90;;;34.70;27.40;;;;;;4951425;28;20034;-85
2022/07/18 10:18:03;;;;;;;1999.90;999.90;;;34.80;27.50;;;;;;4951948;28;20505;-85
2022/07/18 10:20:37;;;;;;;1999.90;999.90;;;34.90;27.10;;;;;;4953579;29;20090;-84
2022/07/18 10:23:23;;;;;;;1999.90;999.90;;;34.90;27.20;;;;;;4952121;29;20034;-84
2022/07/18 10:26:23;;;;;;;1999.90;999.90;;;35.10;26.80;;;;;;4952137;29;20058;-84
2022/07/18 10:28:56;;;;;;;1999.90;999.90;;;35.10;27.10;;;;;;4951509;28;20043;-84
2022/07/18 10:31:23;;;;;;;1999.90;999.90;;;35.40;26.70;;;;;;4951607;28;20489;-84
2022/07/18 10:33:49;;;;;;;1999.90;999.90;;;35.40;26.50;;;;;;4951960;29;20035;-85
2022/07/18 10:36:15;;;;;;;1999.90;999.90;;;35.50;26.50;;;;;;4951907;29;20039;-85
2022/07/18 10:39:04;;;;;;;1999.90;999.90;;;35.60;26.10;;;;;;4953035;28;20042;-84
2022/07/18 10:41:30;;;;;;;1999.90;999.90;;;35.60;26.00;;;;;;4951969;29;20047;-85
2022/07/18 10:43:56;;;;;;;1999.90;999.90;;;35.50;26.10;;;;;;4952858;29;20028;-84
2022/07/18 10:46:22;;;;;;;1999.90;999.90;;;35.60;25.80;;;;;;4952808;28;20035;-84
2022/07/18 10:48:50;;;;;;;1999.90;999.90;;;35.70;25.70;;;;;;4951831;28;20024;-85
2022/07/18 10:51:16;;;;;;;1999.90;999.90;;;35.80;25.60;;;;;;4953117;29;20035;-84
2022/07/18 10:54:06;;;;;;;1999.90;999.90;;;35.90;25.70;;;;;;4951658;29;20046;-85
2022/07/18 10:56:35;;;;;;;1999.90;999.90;;;36.00;25.30;;;;;;4935636;29;20042;-85
2022/07/18 10:59:14;;;;;;;1999.90;999.90;;;36.00;25.10;;;;;;4952792;29;20050;-85
2022/07/18 11:01:53;;;;;;;1999.90;999.90;;;36.00;25.50;;;;;;4932136;28;20042;-85
2022/07/18 11:04:36;;;;;;;1999.90;999.90;;;36.20;24.90;;;;;;4952895;29;20286;-85
2022/07/18 11:07:20;;;;;;;1999.90;999.90;;;36.20;24.90;;;;;;4962379;28;20122;-84
2022/07/18 11:09:47;;;;;;;1999.90;999.90;;;36.40;24.90;;;;;;4951576;28;20035;-85
2022/07/18 11:12:21;;;;;;;1999.90;999.90;;;36.40;24.70;;;;;;4952307;29;20385;-85
2022/07/18 11:15:02;;;;;;;1999.90;999.90;;;36.40;24.60;;;;;;4952780;29;20054;-85
2022/07/18 11:17:58;;;;;;;1999.90;999.90;;;36.60;24.70;;;;;;4952114;28;20046;-85
2022/07/18 11:20:41;;;;;;;1999.90;999.90;;;36.70;24.10;;;;;;4952898;28;20405;-85
2022/07/18 11:23:26;;;;;;;1999.90;999.90;;;36.80;24.00;;;;;;4936471;29;20047;-85
2022/07/18 11:25:56;;;;;;;1999.90;999.90;;;36.80;24.00;;;;;;4935488;29;20035;-85
2022/07/18 11:28:26;;;;;;;1999.90;999.90;;;36.90;23.90;;;;;;4937819;29;20035;-85
2022/07/18 11:31:06;;;;;;;1999.90;999.90;;;36.90;23.70;;;;;;4955615;28;20047;-85
2022/07/18 11:33:37;;;;;;;1999.90;999.90;;;37.10;23.90;;;;;;4955036;28;20034;-85
2022/07/18 11:36:12;;;;;;;1999.90;999.90;;;37.20;23.20;;;;;;4956545;29;20089;-85
2022/07/18 11:38:45;;;;;;;1999.90;999.90;;;37.30;23.70;;;;;;4956529;29;20496;-85
2022/07/18 11:41:11;;;;;;;1999.90;999.90;;;37.40;23.60;;;;;;4954887;28;20038;-85
2022/07/18 11:43:37;;;;;;;1999.90;999.90;;;37.40;22.90;;;;;;4955130;29;20394;-85
2022/07/18 11:46:08;;;;;;;1999.90;999.90;;;37.40;23.00;;;;;;4954549;28;20409;-84
2022/07/18 11:48:35;;;;;;;1999.90;999.90;;;37.50;23.00;;;;;;4954981;28;20023;-85
2022/07/18 11:51:02;;;;;;;1999.90;999.90;;;37.50;22.60;;;;;;4956210;28;20046;-85
2022/07/18 11:53:28;;;;;;;1999.90;999.90;;;37.50;22.40;;;;;;4956101;29;20027;-85
2022/07/18 11:55:55;;;;;;;1999.90;999.90;;;37.60;22.50;;;;;;4954483;28;20031;-85
2022/07/18 11:58:22;;;;;;;1999.90;999.90;;;37.80;22.60;;;;;;4954671;29;20046;-85
2022/07/18 12:00:49;;;;;;;1999.90;999.90;;;37.80;21.50;;;;;;4959146;28;20039;-85
2022/07/18 12:03:24;;;;;;;1999.90;999.90;;;37.80;22.30;;;;;;4939359;29;20039;-84
2022/07/18 12:05:52;;;;;;;1999.90;999.90;;;37.80;21.90;;;;;;4954781;29;20054;-84
2022/07/18 12:08:31;;;;;;;1999.90;999.90;;;37.80;21.70;;;;;;4937681;29;20513;-86
2022/07/18 12:11:12;;;;;;;1999.90;999.90;;;37.90;21.20;;;;;;4934841;29;20028;-86
2022/07/18 12:13:50;;;;;;;1999.90;999.90;;;38.00;21.30;;;;;;4936452;29;20035;-85
2022/07/18 12:16:40;;;;;;;1999.90;999.90;;;38.10;20.90;;;;;;4935054;28;20036;-86
2022/07/18 12:19:08;;;;;;;1999.90;999.90;;;38.20;21.00;;;;;;4936921;29;20112;-85
2022/07/18 12:21:45;;;;;;;1999.90;999.90;;;38.20;21.00;;;;;;4936535;29;20028;-85
2022/07/18 12:24:30;;;;;;;1999.90;999.90;;;38.30;20.80;;;;;;4936744;29;20494;-85
2022/07/18 12:27:18;;;;;;;1999.90;999.90;;;38.30;20.90;;;;;;4936343;29;20035;-85
2022/07/18 12:30:04;;;;;;;1999.90;999.90;;;38.30;20.80;;;;;;4936576;29;20024;-85